createdAt,value
2023-09-08T00:00:23.037Z,21.83
2023-09-08T00:01:26.087Z,21.85
2023-09-08T00:02:29.572Z,21.87
2023-09-08T00:03:32.742Z,21.85
2023-09-08T00:04:36.108Z,21.83
2023-09-08T00:05:38.975Z,21.82
2023-09-08T00:06:42.701Z,21.81
2023-09-08T00:07:45.582Z,21.82
2023-09-08T00:08:48.513Z,21.81
2023-09-08T00:09:51.647Z,21.80
2023-09-08T00:10:54.637Z,21.77
2023-09-08T00:11:57.675Z,21.81
2023-09-08T00:13:00.737Z,21.78
2023-09-08T00:14:05.063Z,21.76
2023-09-08T00:15:08.583Z,21.76
2023-09-08T00:16:11.799Z,21.77
2023-09-08T00:17:14.833Z,21.78
2023-09-08T00:18:17.872Z,21.78
2023-09-08T00:19:20.964Z,21.75
2023-09-08T00:20:23.976Z,21.74
2023-09-08T00:21:27.139Z,21.73
2023-09-08T00:22:30.202Z,21.69
2023-09-08T00:23:33.144Z,21.64
2023-09-08T00:24:36.037Z,21.61
2023-09-08T00:25:39.157Z,21.57
2023-09-08T00:26:42.087Z,21.54
2023-09-08T00:27:45.030Z,21.55
2023-09-08T00:28:49.178Z,21.57
2023-09-08T00:29:52.095Z,21.58
2023-09-08T00:30:55.116Z,21.56
2023-09-08T00:31:58.397Z,21.53
2023-09-08T00:33:01.693Z,21.52
2023-09-08T00:34:05.376Z,21.51
2023-09-08T00:35:09.673Z,21.47
2023-09-08T00:36:12.815Z,21.44
2023-09-08T00:37:15.771Z,21.43
2023-09-08T00:38:19.037Z,21.43
2023-09-08T00:39:23.254Z,21.34
2023-09-08T00:40:26.215Z,21.27
2023-09-08T00:41:29.987Z,21.23
2023-09-08T00:42:32.885Z,21.20
2023-09-08T00:43:35.986Z,21.20
2023-09-08T00:44:39.963Z,21.18
2023-09-08T00:45:44.012Z,21.16
2023-09-08T00:46:47.822Z,21.13
2023-09-08T00:47:51.355Z,21.08
2023-09-08T00:48:54.525Z,21.06
2023-09-08T00:49:57.526Z,21.05
2023-09-08T00:51:00.691Z,21.02
2023-09-08T00:52:04.741Z,21.01
2023-09-08T00:53:08.047Z,21.02
2023-09-08T00:54:11.603Z,21.02
2023-09-08T00:55:14.536Z,21.02
2023-09-08T00:56:17.604Z,21.03
2023-09-08T00:57:20.754Z,21.04
2023-09-08T00:58:23.906Z,21.05
2023-09-08T00:59:27.103Z,21.03
2023-09-08T01:00:30.132Z,21.05
2023-09-08T01:01:33.341Z,21.03
2023-09-08T01:02:36.450Z,21.01
2023-09-08T01:03:41.162Z,20.98
2023-09-08T01:04:44.904Z,20.93
2023-09-08T01:05:48.493Z,20.89
2023-09-08T01:06:51.834Z,20.87
2023-09-08T01:07:57.337Z,20.82
2023-09-08T01:09:00.500Z,20.84
2023-09-08T01:10:05.933Z,20.83
2023-09-08T01:11:08.854Z,20.84
2023-09-08T01:12:12.566Z,20.86
2023-09-08T01:13:15.604Z,20.87
2023-09-08T01:14:22.019Z,20.87
2023-09-08T01:15:25.054Z,20.85
2023-09-08T01:16:28.280Z,20.84
2023-09-08T01:17:31.292Z,20.82
2023-09-08T01:18:34.834Z,20.81
2023-09-08T01:19:38.140Z,20.81
2023-09-08T01:20:47.282Z,20.79
2023-09-08T01:22:10.823Z,20.80
2023-09-08T01:23:23.413Z,20.79
2023-09-08T01:25:18.409Z,20.74
2023-09-08T01:26:22.158Z,20.71
2023-09-08T01:27:25.875Z,20.70
2023-09-08T01:28:28.866Z,20.70
2023-09-08T01:29:31.849Z,20.66
2023-09-08T01:30:34.789Z,20.60
2023-09-08T01:31:39.448Z,20.58
2023-09-08T01:32:42.973Z,20.55
2023-09-08T01:33:46.556Z,20.52
2023-09-08T01:34:49.678Z,20.51
2023-09-08T01:35:53.128Z,20.56
2023-09-08T01:36:56.342Z,20.59
2023-09-08T01:37:59.255Z,20.59
2023-09-08T01:39:03.183Z,20.60
2023-09-08T01:40:06.743Z,20.63
2023-09-08T01:41:09.629Z,20.66
2023-09-08T01:42:12.803Z,20.68
2023-09-08T01:43:15.699Z,20.71
2023-09-08T01:44:18.654Z,20.72
2023-09-08T01:45:21.751Z,20.75
2023-09-08T01:46:24.674Z,20.76
2023-09-08T01:47:27.748Z,20.79
2023-09-08T01:48:30.930Z,20.81
2023-09-08T01:49:34.340Z,20.80
2023-09-08T01:50:37.201Z,20.76
2023-09-08T01:51:40.140Z,20.74
2023-09-08T01:52:43.653Z,20.69
2023-09-08T01:53:46.512Z,20.62
2023-09-08T01:54:49.498Z,20.61
2023-09-08T01:55:52.541Z,20.62
2023-09-08T01:56:56.056Z,20.62
2023-09-08T01:57:59.104Z,20.62
2023-09-08T01:59:02.121Z,20.60
2023-09-08T02:00:05.515Z,20.63
2023-09-08T02:01:31.331Z,20.58
2023-09-08T02:02:34.166Z,20.65
2023-09-08T02:03:37.072Z,20.69
2023-09-08T02:04:40.202Z,20.67
2023-09-08T02:05:43.077Z,20.70
2023-09-08T02:06:46.201Z,20.70
2023-09-08T02:07:49.216Z,20.72
2023-09-08T02:08:52.184Z,20.73
2023-09-08T02:09:55.016Z,20.72
2023-09-08T02:10:58.007Z,20.75
2023-09-08T02:12:01.336Z,20.78
2023-09-08T02:13:05.628Z,20.78
2023-09-08T02:14:09.446Z,20.79
2023-09-08T02:15:13.046Z,20.82
2023-09-08T02:16:16.681Z,20.81
2023-09-08T02:17:19.859Z,20.80
2023-09-08T02:18:22.871Z,20.84
2023-09-08T02:19:25.820Z,20.86
2023-09-08T02:20:28.975Z,20.88
2023-09-08T02:21:32.196Z,20.88
2023-09-08T02:22:35.089Z,20.85
2023-09-08T02:23:38.115Z,20.84
2023-09-08T02:24:41.139Z,20.81
2023-09-08T02:25:44.123Z,20.82
2023-09-08T02:26:47.847Z,20.79
2023-09-08T02:27:51.278Z,20.78
2023-09-08T02:28:54.193Z,20.75
2023-09-08T02:29:57.353Z,20.72
2023-09-08T02:31:00.961Z,20.70
2023-09-08T02:32:04.481Z,20.69
2023-09-08T02:33:07.519Z,20.71
2023-09-08T02:34:10.493Z,20.72
2023-09-08T02:35:13.738Z,20.74
2023-09-08T02:36:16.876Z,20.76
2023-09-08T02:37:20.716Z,20.78
2023-09-08T02:38:23.583Z,20.78
2023-09-08T02:39:28.496Z,20.82
2023-09-08T02:40:31.575Z,20.84
2023-09-08T02:41:34.490Z,20.84
2023-09-08T02:42:37.825Z,20.83
2023-09-08T02:43:40.746Z,20.80
2023-09-08T02:44:44.666Z,20.80
2023-09-08T02:45:48.822Z,20.78
2023-09-08T02:46:51.922Z,20.73
2023-09-08T02:47:54.943Z,20.68
2023-09-08T02:48:58.023Z,20.68
2023-09-08T02:50:01.052Z,20.65
2023-09-08T02:51:03.926Z,20.57
2023-09-08T02:52:07.047Z,20.52
2023-09-08T02:53:11.298Z,20.50
2023-09-08T02:54:14.158Z,20.43
2023-09-08T02:55:17.640Z,20.39
2023-09-08T02:56:20.468Z,20.34
2023-09-08T02:57:23.576Z,20.28
2023-09-08T02:58:26.706Z,20.28
2023-09-08T02:59:29.751Z,20.28
2023-09-08T03:00:32.673Z,20.30
2023-09-08T03:01:36.195Z,20.31
2023-09-08T03:02:39.898Z,20.28
2023-09-08T03:03:43.963Z,20.25
2023-09-08T03:04:47.838Z,20.22
2023-09-08T03:05:50.990Z,20.17
2023-09-08T03:06:53.851Z,20.15
2023-09-08T03:07:56.945Z,20.12
2023-09-08T03:09:00.537Z,20.07
2023-09-08T03:10:04.678Z,20.05
2023-09-08T03:11:08.043Z,20.03
2023-09-08T03:12:11.009Z,20.04
2023-09-08T03:13:13.971Z,20.05
2023-09-08T03:14:17.159Z,20.07
2023-09-08T03:15:20.170Z,20.13
2023-09-08T03:16:23.437Z,20.18
2023-09-08T03:17:26.578Z,20.15
2023-09-08T03:18:29.605Z,20.10
2023-09-08T03:19:32.673Z,20.08
2023-09-08T03:20:35.642Z,20.05
2023-09-08T03:21:38.622Z,20.06
2023-09-08T03:22:41.457Z,20.01
2023-09-08T03:23:45.134Z,20.00
2023-09-08T03:24:47.995Z,19.95
2023-09-08T03:25:51.239Z,19.97
2023-09-08T03:26:54.346Z,19.96
2023-09-08T03:27:58.177Z,19.93
2023-09-08T03:29:01.707Z,19.87
2023-09-08T03:30:06.291Z,19.81
2023-09-08T03:31:09.428Z,19.78
2023-09-08T03:32:13.249Z,19.78
2023-09-08T03:33:16.676Z,19.75
2023-09-08T03:34:22.339Z,19.82
2023-09-08T03:35:25.915Z,19.79
2023-09-08T03:36:29.008Z,19.80
2023-09-08T03:37:33.399Z,19.82
2023-09-08T03:38:38.754Z,19.78
2023-09-08T03:39:41.757Z,19.83
2023-09-08T03:40:44.689Z,19.82
2023-09-08T03:41:47.807Z,19.86
2023-09-08T03:42:51.048Z,19.87
2023-09-08T03:43:54.030Z,19.83
2023-09-08T03:44:56.993Z,19.75
2023-09-08T03:46:01.119Z,19.71
2023-09-08T03:47:04.657Z,19.74
2023-09-08T03:48:08.336Z,19.73
2023-09-08T03:49:11.381Z,19.75
2023-09-08T03:50:14.489Z,19.77
2023-09-08T03:51:17.853Z,19.80
2023-09-08T03:52:21.357Z,19.74
2023-09-08T03:53:24.295Z,19.76
2023-09-08T03:54:27.342Z,19.73
2023-09-08T03:55:31.835Z,19.70
2023-09-08T03:56:35.334Z,19.69
2023-09-08T03:57:38.329Z,19.66
2023-09-08T03:58:41.461Z,19.67
2023-09-08T03:59:44.705Z,19.67
2023-09-08T04:00:47.844Z,19.67
2023-09-08T04:01:50.887Z,19.68
2023-09-08T04:02:53.941Z,19.71
2023-09-08T04:03:56.972Z,19.72
2023-09-08T04:05:00.532Z,19.73
2023-09-08T04:06:03.625Z,19.75
2023-09-08T04:07:06.608Z,19.74
2023-09-08T04:08:09.876Z,19.72
2023-09-08T04:09:12.771Z,19.75
2023-09-08T04:10:15.851Z,19.72
2023-09-08T04:11:18.833Z,19.73
2023-09-08T04:12:21.749Z,19.77
2023-09-08T04:13:24.731Z,19.78
2023-09-08T04:14:30.182Z,19.79
2023-09-08T04:15:33.185Z,19.81
2023-09-08T04:16:36.224Z,19.77
2023-09-08T04:17:39.394Z,19.74
2023-09-08T04:18:43.562Z,19.70
2023-09-08T04:19:46.887Z,19.70
2023-09-08T04:20:49.993Z,19.69
2023-09-08T04:21:53.033Z,19.69
2023-09-08T04:22:55.902Z,19.65
2023-09-08T04:23:58.885Z,19.63
2023-09-08T04:25:02.434Z,19.59
2023-09-08T04:26:08.282Z,19.56
2023-09-08T04:27:13.772Z,19.54
2023-09-08T04:28:18.772Z,19.51
2023-09-08T04:29:21.696Z,19.51
2023-09-08T04:30:24.771Z,19.53
2023-09-08T04:31:27.743Z,19.56
2023-09-08T04:32:30.728Z,19.56
2023-09-08T04:33:34.352Z,19.55
2023-09-08T04:34:42.060Z,19.59
2023-09-08T04:35:45.436Z,19.58
2023-09-08T04:36:48.672Z,19.60
2023-09-08T04:37:51.624Z,19.68
2023-09-08T04:38:55.046Z,19.72
2023-09-08T04:39:58.429Z,19.73
2023-09-08T04:41:01.469Z,19.75
2023-09-08T04:42:05.223Z,19.77
2023-09-08T04:43:08.304Z,19.79
2023-09-08T04:44:11.214Z,19.81
2023-09-08T04:45:15.377Z,19.78
2023-09-08T04:46:18.390Z,19.80
2023-09-08T04:47:22.199Z,19.83
2023-09-08T04:48:25.168Z,19.84
2023-09-08T04:49:30.310Z,19.85
2023-09-08T04:50:33.307Z,19.88
2023-09-08T04:51:36.246Z,19.88
2023-09-08T04:52:40.455Z,19.86
2023-09-08T04:53:43.715Z,19.87
2023-09-08T04:54:47.386Z,19.89
2023-09-08T04:55:52.102Z,19.87
2023-09-08T04:57:03.849Z,19.89
2023-09-08T04:58:15.345Z,19.92
2023-09-08T04:59:18.460Z,19.91
2023-09-08T05:00:21.711Z,19.88
2023-09-08T05:01:24.714Z,19.87
2023-09-08T05:02:28.048Z,19.82
2023-09-08T05:03:32.469Z,19.80
2023-09-08T05:04:36.255Z,19.78
2023-09-08T05:05:40.819Z,19.74
2023-09-08T05:06:43.903Z,19.69
2023-09-08T05:07:47.338Z,19.64
2023-09-08T05:08:51.143Z,19.62
2023-09-08T05:09:57.325Z,19.58
2023-09-08T05:11:03.294Z,19.50
2023-09-08T05:12:07.501Z,19.46
2023-09-08T05:13:24.126Z,19.41
2023-09-08T05:14:34.671Z,19.37
2023-09-08T05:15:39.341Z,19.30
2023-09-08T05:16:47.829Z,19.27
2023-09-08T05:17:54.969Z,19.32
2023-09-08T05:18:58.955Z,19.38
2023-09-08T05:20:02.016Z,19.36
2023-09-08T05:21:05.738Z,19.31
2023-09-08T05:22:08.938Z,19.28
2023-09-08T05:23:12.331Z,19.27
2023-09-08T05:24:15.213Z,19.24
2023-09-08T05:25:18.284Z,19.22
2023-09-08T05:26:21.335Z,19.25
2023-09-08T05:27:24.494Z,19.23
2023-09-08T05:28:27.900Z,19.22
2023-09-08T05:29:31.151Z,19.19
2023-09-08T05:30:34.183Z,19.18
2023-09-08T05:31:37.124Z,19.20
2023-09-08T05:32:40.431Z,19.18
2023-09-08T05:33:43.435Z,19.18
2023-09-08T05:34:47.337Z,19.17
2023-09-08T05:35:50.530Z,19.17
2023-09-08T05:36:53.708Z,19.16
2023-09-08T05:37:56.751Z,19.17
2023-09-08T05:39:00.936Z,19.18
2023-09-08T05:40:05.264Z,19.20
2023-09-08T05:41:08.349Z,19.20
2023-09-08T05:42:13.765Z,19.20
2023-09-08T05:43:16.743Z,19.21
2023-09-08T05:44:19.854Z,19.23
2023-09-08T05:45:22.815Z,19.25
2023-09-08T05:46:25.803Z,19.26
2023-09-08T05:47:28.908Z,19.26
2023-09-08T05:48:33.471Z,19.31
2023-09-08T05:49:37.660Z,19.33
2023-09-08T05:50:41.146Z,19.35
2023-09-08T05:51:44.097Z,19.33
2023-09-08T05:52:47.355Z,19.32
2023-09-08T05:53:50.534Z,19.33
2023-09-08T05:54:53.553Z,19.39
2023-09-08T05:55:57.520Z,19.40
2023-09-08T05:57:00.907Z,19.41
2023-09-08T05:58:04.156Z,19.35
2023-09-08T05:59:07.070Z,19.39
2023-09-08T06:00:10.877Z,19.39
2023-09-08T06:01:20.309Z,19.33
2023-09-08T06:02:25.553Z,19.32
2023-09-08T06:03:28.864Z,19.31
2023-09-08T06:04:34.675Z,19.28
2023-09-08T06:05:38.383Z,19.31
2023-09-08T06:06:42.024Z,19.33
2023-09-08T06:07:54.023Z,19.33
2023-09-08T06:09:09.555Z,19.36
2023-09-08T06:10:13.540Z,19.42
2023-09-08T06:11:16.595Z,19.46
2023-09-08T06:12:19.618Z,19.47
2023-09-08T06:13:22.613Z,19.52
2023-09-08T06:14:25.504Z,19.52
2023-09-08T06:15:28.421Z,19.59
2023-09-08T06:16:31.492Z,19.62
2023-09-08T06:17:34.498Z,19.67
2023-09-08T06:18:41.659Z,19.69
2023-09-08T06:19:48.453Z,19.74
2023-09-08T06:20:51.488Z,19.76
2023-09-08T06:21:54.389Z,19.84
2023-09-08T06:22:58.385Z,19.88
2023-09-08T06:24:01.304Z,19.92
2023-09-08T06:25:05.119Z,19.94
2023-09-08T06:26:08.734Z,19.98
2023-09-08T06:27:14.659Z,20.06
2023-09-08T06:28:17.631Z,20.12
2023-09-08T06:29:20.682Z,20.18
2023-09-08T06:30:23.626Z,20.25
2023-09-08T06:31:26.611Z,20.29
2023-09-08T06:32:29.694Z,20.32
2023-09-08T06:33:32.812Z,20.39
2023-09-08T06:34:37.196Z,20.41
2023-09-08T06:35:40.848Z,20.45
2023-09-08T06:36:43.935Z,20.52
2023-09-08T06:37:46.984Z,20.58
2023-09-08T06:38:50.301Z,20.54
2023-09-08T06:39:55.694Z,20.59
2023-09-08T06:40:58.930Z,20.63
2023-09-08T06:42:01.949Z,20.66
2023-09-08T06:43:05.178Z,20.69
2023-09-08T06:44:33.947Z,20.74
2023-09-08T06:45:40.738Z,20.82
2023-09-08T06:46:43.768Z,20.84
2023-09-08T06:47:46.842Z,20.85
2023-09-08T06:48:49.981Z,20.87
2023-09-08T06:49:53.322Z,20.91
2023-09-08T06:50:57.960Z,20.95
2023-09-08T06:52:02.408Z,20.99
2023-09-08T06:53:05.782Z,20.98
2023-09-08T06:54:08.928Z,21.02
2023-09-08T06:55:18.116Z,21.05
2023-09-08T06:56:21.932Z,21.09
2023-09-08T06:57:25.002Z,21.11
2023-09-08T06:58:28.127Z,21.14
2023-09-08T06:59:31.350Z,21.21
2023-09-08T07:00:34.858Z,21.35
2023-09-08T07:01:40.424Z,21.47
2023-09-08T07:02:44.699Z,21.53
2023-09-08T07:03:48.307Z,21.73
2023-09-08T07:04:52.775Z,21.87
2023-09-08T07:05:55.867Z,22.00
2023-09-08T07:07:00.392Z,22.06
2023-09-08T07:08:03.739Z,22.14
2023-09-08T07:09:06.606Z,22.31
2023-09-08T07:10:10.510Z,22.61
2023-09-08T07:11:15.848Z,22.72
2023-09-08T07:12:20.534Z,22.76
2023-09-08T07:13:23.499Z,22.70
2023-09-08T07:14:27.154Z,22.76
2023-09-08T07:15:30.626Z,22.97
2023-09-08T07:16:34.268Z,23.57
2023-09-08T07:17:37.768Z,24.20
2023-09-08T07:18:40.751Z,24.89
2023-09-08T07:19:44.934Z,25.58
2023-09-08T07:20:51.059Z,26.27
2023-09-08T07:21:56.020Z,26.86
2023-09-08T07:22:59.083Z,27.24
2023-09-08T07:24:02.290Z,27.63
2023-09-08T07:25:06.540Z,28.01
2023-09-08T07:26:09.613Z,28.31
2023-09-08T07:27:16.297Z,28.66
2023-09-08T07:28:21.327Z,28.47
2023-09-08T07:29:25.848Z,28.10
2023-09-08T07:30:29.252Z,27.81
2023-09-08T07:31:32.311Z,27.16
2023-09-08T07:32:35.342Z,26.67
2023-09-08T07:33:38.616Z,26.26
2023-09-08T07:34:41.608Z,26.56
2023-09-08T07:35:44.793Z,26.97
2023-09-08T07:36:47.756Z,27.42
2023-09-08T07:37:50.768Z,27.55
2023-09-08T07:38:54.052Z,27.32
2023-09-08T07:39:57.048Z,27.10
2023-09-08T07:41:01.671Z,27.13
2023-09-08T07:42:05.063Z,26.96
2023-09-08T07:43:08.351Z,26.88
2023-09-08T07:44:14.756Z,26.70
2023-09-08T07:45:18.407Z,26.40
2023-09-08T07:46:21.458Z,26.14
2023-09-08T07:47:24.388Z,25.82
2023-09-08T07:48:27.446Z,25.62
2023-09-08T07:49:30.725Z,25.57
2023-09-08T07:50:33.783Z,25.73
2023-09-08T07:51:36.690Z,25.77
2023-09-08T07:52:39.764Z,26.02
2023-09-08T07:53:42.831Z,26.10
2023-09-08T07:54:45.730Z,26.15
2023-09-08T07:55:48.815Z,26.31
2023-09-08T07:56:51.718Z,26.27
2023-09-08T07:57:55.389Z,26.14
2023-09-08T07:58:58.461Z,25.94
2023-09-08T08:00:01.401Z,25.56
2023-09-08T08:01:04.990Z,25.40
2023-09-08T08:02:08.236Z,25.51
2023-09-08T08:03:11.224Z,25.67
2023-09-08T08:04:14.303Z,26.15
2023-09-08T08:05:17.706Z,26.71
2023-09-08T08:06:20.693Z,27.26
2023-09-08T08:07:23.606Z,27.90
2023-09-08T08:08:26.612Z,28.45
2023-09-08T08:09:29.563Z,28.83
2023-09-08T08:10:33.005Z,29.07
2023-09-08T08:11:36.012Z,29.16
2023-09-08T08:12:39.433Z,28.88
2023-09-08T08:13:42.355Z,28.59
2023-09-08T08:14:45.488Z,28.11
2023-09-08T08:15:48.918Z,27.70
2023-09-08T08:16:51.796Z,27.36
2023-09-08T08:17:54.852Z,27.14
2023-09-08T08:18:57.860Z,27.04
2023-09-08T08:20:00.858Z,26.90
2023-09-08T08:21:05.151Z,26.72
2023-09-08T08:22:08.020Z,26.56
2023-09-08T08:23:11.033Z,26.58
2023-09-08T08:24:14.151Z,26.38
2023-09-08T08:25:17.328Z,26.08
2023-09-08T08:26:20.215Z,26.06
2023-09-08T08:27:23.313Z,26.29
2023-09-08T08:28:26.659Z,26.23
2023-09-08T08:29:29.590Z,26.26
2023-09-08T08:30:34.288Z,26.56
2023-09-08T08:31:37.468Z,26.80
2023-09-08T08:32:40.492Z,26.81
2023-09-08T08:33:44.368Z,26.85
2023-09-08T08:34:47.466Z,26.87
2023-09-08T08:35:51.929Z,26.81
2023-09-08T08:36:55.214Z,26.84
2023-09-08T08:38:00.161Z,26.74
2023-09-08T08:39:02.990Z,26.43
2023-09-08T08:40:06.953Z,26.33
2023-09-08T08:41:09.904Z,26.42
2023-09-08T08:42:12.897Z,26.37
2023-09-08T08:43:16.029Z,26.36
2023-09-08T08:44:19.935Z,26.63
2023-09-08T08:45:24.849Z,26.78
2023-09-08T08:46:27.916Z,27.13
2023-09-08T08:47:30.981Z,27.57
2023-09-08T08:48:34.217Z,27.58
2023-09-08T08:49:37.980Z,27.54
2023-09-08T08:50:40.852Z,27.79
2023-09-08T08:51:47.548Z,28.20
2023-09-08T08:52:50.555Z,28.56
2023-09-08T08:53:53.778Z,28.32
2023-09-08T08:54:56.918Z,28.23
2023-09-08T08:56:00.842Z,28.21
2023-09-08T08:57:04.235Z,28.35
2023-09-08T08:58:07.576Z,28.44
2023-09-08T08:59:11.423Z,28.72
2023-09-08T09:00:16.989Z,28.54
2023-09-08T09:01:21.188Z,28.18
2023-09-08T09:02:24.534Z,28.45
2023-09-08T09:03:30.266Z,28.81
2023-09-08T09:04:33.193Z,29.36
2023-09-08T09:05:36.979Z,29.59
2023-09-08T09:06:39.913Z,29.62
2023-09-08T09:07:45.956Z,29.40
2023-09-08T09:08:48.961Z,28.94
2023-09-08T09:09:52.542Z,28.43
2023-09-08T09:10:55.961Z,28.11
2023-09-08T09:11:58.915Z,27.63
2023-09-08T09:13:05.321Z,27.29
2023-09-08T09:14:08.167Z,27.05
2023-09-08T09:15:11.699Z,26.88
2023-09-08T09:16:14.792Z,26.62
2023-09-08T09:17:17.746Z,26.36
2023-09-08T09:18:20.835Z,26.30
2023-09-08T09:19:28.996Z,26.17
2023-09-08T09:20:31.919Z,25.97
2023-09-08T09:21:46.132Z,25.75
2023-09-08T09:22:50.701Z,25.54
2023-09-08T09:23:55.523Z,25.50
2023-09-08T09:24:59.301Z,25.41
2023-09-08T09:26:05.707Z,25.40
2023-09-08T09:27:09.152Z,25.36
2023-09-08T09:28:12.181Z,25.20
2023-09-08T09:29:15.355Z,25.18
2023-09-08T09:30:18.227Z,25.05
2023-09-08T09:31:26.198Z,25.03
2023-09-08T09:32:31.106Z,25.01
2023-09-08T09:33:34.105Z,24.87
2023-09-08T09:34:37.169Z,24.87
2023-09-08T09:35:43.967Z,24.89
2023-09-08T09:36:47.473Z,24.91
2023-09-08T09:37:50.618Z,24.96
2023-09-08T09:38:53.615Z,25.04
2023-09-08T09:39:56.814Z,25.12
2023-09-08T09:40:59.926Z,25.18
2023-09-08T09:42:02.821Z,25.27
2023-09-08T09:43:06.659Z,25.29
2023-09-08T09:44:10.071Z,25.37
2023-09-08T09:45:12.974Z,25.52
2023-09-08T09:46:17.204Z,25.64
2023-09-08T09:47:20.841Z,25.75
2023-09-08T09:48:25.525Z,25.85
2023-09-08T09:49:33.587Z,25.99
2023-09-08T09:50:38.075Z,26.02
2023-09-08T09:51:50.966Z,26.24
2023-09-08T09:52:53.984Z,26.41
2023-09-08T09:53:57.558Z,26.44
2023-09-08T09:55:00.636Z,26.33
2023-09-08T09:56:04.004Z,26.33
2023-09-08T09:57:07.045Z,26.38
2023-09-08T09:58:12.126Z,26.85
2023-09-08T09:59:15.455Z,27.56
2023-09-08T10:00:18.821Z,28.21
2023-09-08T10:01:21.818Z,28.69
2023-09-08T10:02:25.161Z,28.93
2023-09-08T10:03:28.390Z,28.97
2023-09-08T10:04:31.442Z,28.98
2023-09-08T10:05:34.821Z,29.26
2023-09-08T10:06:39.136Z,29.17
2023-09-08T10:07:42.543Z,29.43
2023-09-08T10:08:45.536Z,29.70
2023-09-08T10:09:48.588Z,29.70
2023-09-08T10:10:52.097Z,29.96
2023-09-08T10:11:56.089Z,29.75
2023-09-08T10:13:01.698Z,29.98
2023-09-08T10:14:05.420Z,29.97
2023-09-08T10:15:08.970Z,30.06
2023-09-08T10:16:12.016Z,30.38
2023-09-08T10:17:18.892Z,30.72
2023-09-08T10:18:21.950Z,30.77
2023-09-08T10:19:25.035Z,30.86
2023-09-08T10:20:29.096Z,30.55
2023-09-08T10:21:32.106Z,30.39
2023-09-08T10:22:35.073Z,30.50
2023-09-08T10:23:46.523Z,30.75
2023-09-08T10:24:49.564Z,30.57
2023-09-08T10:25:56.311Z,30.27
2023-09-08T10:27:13.620Z,30.58
2023-09-08T10:28:17.441Z,30.94
2023-09-08T10:29:20.774Z,30.83
2023-09-08T10:30:23.764Z,30.67
2023-09-08T10:31:29.582Z,30.62
2023-09-08T10:32:33.565Z,30.17
2023-09-08T10:33:36.684Z,30.07
2023-09-08T10:34:39.621Z,29.85
2023-09-08T10:35:42.649Z,29.70
2023-09-08T10:36:45.640Z,29.15
2023-09-08T10:37:48.589Z,28.85
2023-09-08T10:38:53.505Z,28.69
2023-09-08T10:39:56.669Z,28.47
2023-09-08T10:41:17.522Z,28.34
2023-09-08T10:42:20.841Z,28.19
2023-09-08T10:43:23.756Z,28.05
2023-09-08T10:44:27.481Z,27.99
2023-09-08T10:45:32.081Z,27.92
2023-09-08T10:46:36.578Z,27.91
2023-09-08T10:47:48.391Z,27.93
2023-09-08T10:48:51.592Z,27.82
2023-09-08T10:50:00.542Z,27.80
2023-09-08T10:51:04.202Z,27.72
2023-09-08T10:52:10.692Z,27.69
2023-09-08T10:53:19.641Z,27.67
2023-09-08T10:54:44.247Z,27.77
2023-09-08T10:57:08.190Z,28.36
2023-09-08T10:58:12.061Z,28.55
2023-09-08T10:59:15.151Z,28.84
2023-09-08T11:00:19.819Z,29.03
2023-09-08T11:01:28.258Z,29.17
2023-09-08T11:02:37.725Z,29.29
2023-09-08T11:03:43.638Z,29.18
2023-09-08T11:04:46.696Z,29.11
2023-09-08T11:05:49.530Z,29.05
2023-09-08T11:06:52.521Z,28.99
2023-09-08T11:07:55.670Z,29.08
2023-09-08T11:09:00.061Z,29.08
2023-09-08T11:10:03.267Z,29.16
2023-09-08T11:11:06.186Z,29.19
2023-09-08T11:12:10.027Z,29.28
2023-09-08T11:13:13.039Z,29.27
2023-09-08T11:14:16.676Z,29.13
2023-09-08T11:15:19.806Z,29.02
2023-09-08T11:16:26.989Z,29.00
2023-09-08T11:17:29.984Z,29.04
2023-09-08T11:18:33.710Z,28.96
2023-09-08T11:19:49.847Z,28.85
2023-09-08T11:20:55.647Z,28.79
2023-09-08T11:21:58.935Z,28.75
2023-09-08T11:23:02.311Z,28.81
2023-09-08T11:24:08.585Z,29.01
2023-09-08T11:25:14.632Z,29.17
2023-09-08T11:26:18.325Z,29.36
2023-09-08T11:27:22.325Z,29.61
2023-09-08T11:28:25.830Z,29.85
2023-09-08T11:29:28.772Z,29.99
2023-09-08T11:30:31.782Z,29.93
2023-09-08T11:31:36.237Z,29.87
2023-09-08T11:32:39.253Z,29.91
2023-09-08T11:33:42.227Z,29.93
2023-09-08T11:34:45.169Z,29.67
2023-09-08T11:35:48.116Z,29.59
2023-09-08T11:36:51.261Z,29.70
2023-09-08T11:37:56.753Z,29.79
2023-09-08T11:38:59.699Z,29.79
2023-09-08T11:40:02.708Z,29.95
2023-09-08T11:41:05.857Z,30.15
2023-09-08T11:42:09.257Z,30.25
2023-09-08T11:43:12.201Z,30.12
2023-09-08T11:44:19.259Z,30.23
2023-09-08T11:45:25.068Z,30.16
2023-09-08T11:46:28.011Z,30.23
2023-09-08T11:47:31.411Z,30.02
2023-09-08T11:48:35.321Z,30.09
2023-09-08T11:49:39.160Z,30.18
2023-09-08T11:50:45.480Z,30.10
2023-09-08T11:51:48.789Z,30.03
2023-09-08T11:52:53.332Z,29.86
2023-09-08T11:53:56.581Z,29.86
2023-09-08T11:55:07.006Z,29.97
2023-09-08T11:56:10.685Z,30.16
2023-09-08T11:57:13.788Z,30.37
2023-09-08T11:58:16.777Z,30.63
2023-09-08T11:59:19.717Z,30.85
2023-09-08T12:00:24.519Z,30.94
2023-09-08T12:01:27.481Z,30.88
2023-09-08T12:02:30.525Z,30.97
2023-09-08T12:03:33.667Z,30.92
2023-09-08T12:04:37.352Z,30.86
2023-09-08T12:05:40.460Z,30.72
2023-09-08T12:06:43.468Z,30.51
2023-09-08T12:07:46.443Z,30.60
2023-09-08T12:08:49.376Z,30.70
2023-09-08T12:09:52.417Z,30.93
2023-09-08T12:10:55.634Z,31.01
2023-09-08T12:11:59.111Z,30.98
2023-09-08T12:13:02.156Z,30.77
2023-09-08T12:14:09.088Z,30.63
2023-09-08T12:15:12.304Z,30.68
2023-09-08T12:16:22.061Z,30.52
2023-09-08T12:17:27.273Z,30.48
2023-09-08T12:18:39.870Z,30.37
2023-09-08T12:19:43.246Z,30.41
2023-09-08T12:20:46.349Z,30.29
2023-09-08T12:21:59.202Z,30.30
2023-09-08T12:23:06.689Z,30.27
2023-09-08T12:24:14.484Z,30.21
2023-09-08T12:25:17.595Z,30.22
2023-09-08T12:26:20.970Z,30.32
2023-09-08T12:27:24.107Z,30.31
2023-09-08T12:28:27.026Z,30.32
2023-09-08T12:29:30.342Z,30.32
2023-09-08T12:30:34.598Z,30.33
2023-09-08T12:31:37.555Z,30.32
2023-09-08T12:32:40.690Z,30.33
2023-09-08T12:33:46.537Z,30.34
2023-09-08T12:34:49.645Z,30.37
2023-09-08T12:35:55.185Z,30.34
2023-09-08T12:36:58.109Z,30.17
2023-09-08T12:38:02.110Z,30.09
2023-09-08T12:39:06.448Z,30.05
2023-09-08T12:40:10.529Z,29.93
2023-09-08T12:41:13.492Z,29.96
2023-09-08T12:42:16.723Z,29.88
2023-09-08T12:43:28.235Z,29.90
2023-09-08T12:44:31.689Z,29.97
2023-09-08T12:45:34.855Z,29.97
2023-09-08T12:46:37.840Z,30.00
2023-09-08T12:47:40.924Z,30.00
2023-09-08T12:48:43.989Z,30.06
2023-09-08T12:49:46.962Z,30.04
2023-09-08T12:50:50.648Z,30.06
2023-09-08T12:51:53.729Z,29.98
2023-09-08T12:52:56.610Z,30.07
2023-09-08T12:53:59.627Z,30.06
2023-09-08T12:55:02.613Z,29.92
2023-09-08T12:56:05.625Z,29.93
2023-09-08T12:57:08.658Z,29.79
2023-09-08T12:58:11.738Z,29.63
2023-09-08T12:59:14.694Z,29.45
2023-09-08T13:00:17.919Z,29.64
2023-09-08T13:01:21.047Z,29.76
2023-09-08T13:02:24.074Z,29.96
2023-09-08T13:03:27.130Z,30.06
2023-09-08T13:04:30.415Z,29.90
2023-09-08T13:05:37.104Z,30.01
2023-09-08T13:06:40.067Z,30.01
2023-09-08T13:07:43.067Z,30.08
2023-09-08T13:08:45.904Z,30.05
2023-09-08T13:09:48.893Z,30.12
2023-09-08T13:10:52.740Z,30.14
2023-09-08T13:11:55.671Z,30.09
2023-09-08T13:12:58.631Z,30.03
2023-09-08T13:14:01.597Z,29.96
2023-09-08T13:15:04.823Z,29.90
2023-09-08T13:16:07.907Z,29.86
2023-09-08T13:17:12.227Z,29.93
2023-09-08T13:18:15.424Z,29.80
2023-09-08T13:19:18.525Z,29.84
2023-09-08T13:20:21.556Z,29.90
2023-09-08T13:21:24.565Z,29.94
2023-09-08T13:22:27.694Z,30.02
2023-09-08T13:23:30.705Z,30.05
2023-09-08T13:24:33.577Z,30.03
2023-09-08T13:25:36.383Z,30.07
2023-09-08T13:26:41.668Z,30.06
2023-09-08T13:27:44.906Z,30.09
2023-09-08T13:28:48.312Z,30.06
2023-09-08T13:29:51.546Z,30.20
2023-09-08T13:30:54.511Z,30.36
2023-09-08T13:31:57.570Z,30.46
2023-09-08T13:33:00.771Z,30.37
2023-09-08T13:34:03.919Z,30.32
2023-09-08T13:35:07.574Z,30.34
2023-09-08T13:36:10.616Z,30.43
2023-09-08T13:37:14.622Z,30.43
2023-09-08T13:38:17.542Z,30.37
2023-09-08T13:39:20.535Z,30.11
2023-09-08T13:40:23.377Z,30.10
2023-09-08T13:41:26.449Z,30.14
2023-09-08T13:42:29.475Z,30.11
2023-09-08T13:43:32.411Z,30.07
2023-09-08T13:44:35.351Z,30.03
2023-09-08T13:45:38.869Z,29.98